sensor_id;sensor_type;location;lat;lon;timestamp;P1;durP1;ratioP1;P2;durP2;ratioP2
48534;SDS011;34323;52.022;5.686;2023-06-22T00:01:17;4.53;;;2.60;;
48534;SDS011;34323;52.022;5.686;2023-06-22T00:03:43;5.65;;;2.65;;
48534;SDS011;34323;52.022;5.686;2023-06-22T00:06:09;5.03;;;2.50;;
48534;SDS011;34323;52.022;5.686;2023-06-22T00:08:34;4.20;;;2.95;;
48534;SDS011;34323;52.022;5.686;2023-06-22T00:11:00;5.95;;;2.85;;
48534;SDS011;34323;52.022;5.686;2023-06-22T00:13:25;8.02;;;2.50;;
48534;SDS011;34323;52.022;5.686;2023-06-22T00:15:51;4.07;;;2.45;;
48534;SDS011;34323;52.022;5.686;2023-06-22T00:18:17;6.00;;;2.90;;
48534;SDS011;34323;52.022;5.686;2023-06-22T00:20:42;3.95;;;2.92;;
48534;SDS011;34323;52.022;5.686;2023-06-22T00:23:10;5.43;;;3.00;;
48534;SDS011;34323;52.022;5.686;2023-06-22T00:25:36;5.40;;;3.03;;
48534;SDS011;34323;52.022;5.686;2023-06-22T00:28:03;5.40;;;3.13;;
48534;SDS011;34323;52.022;5.686;2023-06-22T00:30:29;6.47;;;3.30;;
48534;SDS011;34323;52.022;5.686;2023-06-22T00:32:56;4.00;;;2.75;;
48534;SDS011;34323;52.022;5.686;2023-06-22T00:35:21;6.30;;;2.80;;
48534;SDS011;34323;52.022;5.686;2023-06-22T00:37:47;5.15;;;3.22;;
48534;SDS011;34323;52.022;5.686;2023-06-22T00:40:12;4.85;;;2.92;;
48534;SDS011;34323;52.022;5.686;2023-06-22T00:42:39;3.33;;;2.60;;
48534;SDS011;34323;52.022;5.686;2023-06-22T00:45:06;6.15;;;3.10;;
48534;SDS011;34323;52.022;5.686;2023-06-22T00:47:32;4.07;;;3.15;;
48534;SDS011;34323;52.022;5.686;2023-06-22T00:49:59;4.32;;;3.22;;
48534;SDS011;34323;52.022;5.686;2023-06-22T00:52:25;5.68;;;3.70;;
48534;SDS011;34323;52.022;5.686;2023-06-22T00:54:54;9.75;;;3.25;;
48534;SDS011;34323;52.022;5.686;2023-06-22T00:57:21;4.07;;;2.85;;
48534;SDS011;34323;52.022;5.686;2023-06-22T00:59:48;4.38;;;2.83;;
48534;SDS011;34323;52.022;5.686;2023-06-22T01:02:14;4.80;;;3.30;;
48534;SDS011;34323;52.022;5.686;2023-06-22T01:04:40;4.88;;;3.03;;
48534;SDS011;34323;52.022;5.686;2023-06-22T01:07:10;6.43;;;3.40;;
48534;SDS011;34323;52.022;5.686;2023-06-22T01:09:41;5.95;;;3.40;;
48534;SDS011;34323;52.022;5.686;2023-06-22T01:12:16;4.40;;;3.05;;
48534;SDS011;34323;52.022;5.686;2023-06-22T01:14:47;7.78;;;3.70;;
48534;SDS011;34323;52.022;5.686;2023-06-22T01:17:22;4.80;;;3.55;;
48534;SDS011;34323;52.022;5.686;2023-06-22T01:19:50;4.97;;;3.00;;
48534;SDS011;34323;52.022;5.686;2023-06-22T01:22:22;8.40;;;3.60;;
48534;SDS011;34323;52.022;5.686;2023-06-22T01:24:55;6.50;;;3.78;;
48534;SDS011;34323;52.022;5.686;2023-06-22T01:27:53;5.90;;;3.38;;
48534;SDS011;34323;52.022;5.686;2023-06-22T01:30:27;6.30;;;3.67;;
48534;SDS011;34323;52.022;5.686;2023-06-22T01:32:55;6.63;;;3.70;;
48534;SDS011;34323;52.022;5.686;2023-06-22T01:35:21;5.05;;;3.50;;
48534;SDS011;34323;52.022;5.686;2023-06-22T01:37:48;5.95;;;3.88;;
48534;SDS011;34323;52.022;5.686;2023-06-22T01:40:14;6.45;;;4.10;;
48534;SDS011;34323;52.022;5.686;2023-06-22T01:42:41;8.45;;;4.78;;
48534;SDS011;34323;52.022;5.686;2023-06-22T01:45:08;8.32;;;4.03;;
48534;SDS011;34323;52.022;5.686;2023-06-22T01:47:36;8.77;;;4.13;;
48534;SDS011;34323;52.022;5.686;2023-06-22T01:50:02;6.35;;;3.33;;
48534;SDS011;34323;52.022;5.686;2023-06-22T01:52:28;6.97;;;3.95;;
48534;SDS011;34323;52.022;5.686;2023-06-22T01:54:54;6.00;;;3.92;;
48534;SDS011;34323;52.022;5.686;2023-06-22T01:57:19;8.15;;;4.22;;
48534;SDS011;34323;52.022;5.686;2023-06-22T01:59:53;7.68;;;4.53;;
48534;SDS011;34323;52.022;5.686;2023-06-22T02:02:27;7.45;;;4.47;;
48534;SDS011;34323;52.022;5.686;2023-06-22T02:05:05;5.22;;;3.60;;
48534;SDS011;34323;52.022;5.686;2023-06-22T02:07:34;4.97;;;3.17;;
48534;SDS011;34323;52.022;5.686;2023-06-22T02:10:28;12.48;;;4.25;;
48534;SDS011;34323;52.022;5.686;2023-06-22T02:12:56;5.28;;;3.83;;
48534;SDS011;34323;52.022;5.686;2023-06-22T02:15:24;6.68;;;4.00;;
48534;SDS011;34323;52.022;5.686;2023-06-22T02:17:50;5.80;;;3.80;;
48534;SDS011;34323;52.022;5.686;2023-06-22T02:20:16;6.82;;;3.83;;
48534;SDS011;34323;52.022;5.686;2023-06-22T02:22:41;7.43;;;3.97;;
48534;SDS011;34323;52.022;5.686;2023-06-22T02:25:07;6.78;;;4.22;;
48534;SDS011;34323;52.022;5.686;2023-06-22T02:27:33;9.05;;;3.80;;
48534;SDS011;34323;52.022;5.686;2023-06-22T02:29:58;6.25;;;3.63;;
48534;SDS011;34323;52.022;5.686;2023-06-22T02:32:24;12.20;;;3.88;;
48534;SDS011;34323;52.022;5.686;2023-06-22T02:34:49;8.52;;;4.30;;
48534;SDS011;34323;52.022;5.686;2023-06-22T02:37:15;5.97;;;3.60;;
48534;SDS011;34323;52.022;5.686;2023-06-22T02:39:41;6.40;;;3.90;;
48534;SDS011;34323;52.022;5.686;2023-06-22T02:42:07;6.53;;;4.07;;
48534;SDS011;34323;52.022;5.686;2023-06-22T02:44:33;5.85;;;3.55;;
48534;SDS011;34323;52.022;5.686;2023-06-22T02:46:58;6.43;;;4.30;;
48534;SDS011;34323;52.022;5.686;2023-06-22T02:49:24;10.07;;;4.45;;
48534;SDS011;34323;52.022;5.686;2023-06-22T02:51:49;5.97;;;4.38;;
48534;SDS011;34323;52.022;5.686;2023-06-22T02:54:15;6.45;;;3.92;;
48534;SDS011;34323;52.022;5.686;2023-06-22T02:56:41;5.80;;;3.80;;
48534;SDS011;34323;52.022;5.686;2023-06-22T02:59:09;5.75;;;3.88;;
48534;SDS011;34323;52.022;5.686;2023-06-22T03:01:35;7.70;;;4.30;;
48534;SDS011;34323;52.022;5.686;2023-06-22T03:04:07;5.40;;;3.72;;
48534;SDS011;34323;52.022;5.686;2023-06-22T03:06:34;8.07;;;3.90;;
48534;SDS011;34323;52.022;5.686;2023-06-22T03:09:01;5.95;;;3.83;;
48534;SDS011;34323;52.022;5.686;2023-06-22T03:11:29;6.57;;;3.60;;
48534;SDS011;34323;52.022;5.686;2023-06-22T03:13:58;6.70;;;4.15;;
48534;SDS011;34323;52.022;5.686;2023-06-22T03:16:24;7.07;;;4.85;;
48534;SDS011;34323;52.022;5.686;2023-06-22T03:18:50;8.75;;;4.30;;
48534;SDS011;34323;52.022;5.686;2023-06-22T03:21:16;10.15;;;4.20;;
48534;SDS011;34323;52.022;5.686;2023-06-22T03:23:42;6.28;;;4.03;;
48534;SDS011;34323;52.022;5.686;2023-06-22T03:26:08;4.85;;;3.55;;
48534;SDS011;34323;52.022;5.686;2023-06-22T03:28:34;6.05;;;4.65;;
48534;SDS011;34323;52.022;5.686;2023-06-22T03:31:00;10.30;;;4.65;;
48534;SDS011;34323;52.022;5.686;2023-06-22T03:33:25;8.95;;;4.45;;
48534;SDS011;34323;52.022;5.686;2023-06-22T03:35:51;9.00;;;3.95;;
48534;SDS011;34323;52.022;5.686;2023-06-22T03:38:17;6.70;;;4.13;;
48534;SDS011;34323;52.022;5.686;2023-06-22T03:40:42;13.80;;;4.60;;
48534;SDS011;34323;52.022;5.686;2023-06-22T03:43:08;8.80;;;4.60;;
48534;SDS011;34323;52.022;5.686;2023-06-22T03:45:34;10.27;;;5.05;;
48534;SDS011;34323;52.022;5.686;2023-06-22T03:48:00;7.80;;;4.85;;
48534;SDS011;34323;52.022;5.686;2023-06-22T03:50:26;7.35;;;5.15;;
48534;SDS011;34323;52.022;5.686;2023-06-22T03:52:51;9.93;;;4.68;;
48534;SDS011;34323;52.022;5.686;2023-06-22T03:55:17;6.93;;;5.10;;
48534;SDS011;34323;52.022;5.686;2023-06-22T03:57:44;8.32;;;5.28;;
48534;SDS011;34323;52.022;5.686;2023-06-22T04:00:10;14.55;;;5.10;;
48534;SDS011;34323;52.022;5.686;2023-06-22T04:02:36;9.82;;;5.40;;
48534;SDS011;34323;52.022;5.686;2023-06-22T04:05:02;7.57;;;5.50;;
48534;SDS011;34323;52.022;5.686;2023-06-22T04:07:27;11.27;;;6.13;;
48534;SDS011;34323;52.022;5.686;2023-06-22T04:09:53;11.82;;;6.55;;
48534;SDS011;34323;52.022;5.686;2023-06-22T04:12:18;8.57;;;6.13;;
48534;SDS011;34323;52.022;5.686;2023-06-22T04:14:44;12.13;;;6.68;;
48534;SDS011;34323;52.022;5.686;2023-06-22T04:17:10;9.23;;;6.25;;
48534;SDS011;34323;52.022;5.686;2023-06-22T04:19:35;10.40;;;6.20;;
48534;SDS011;34323;52.022;5.686;2023-06-22T04:22:01;10.70;;;5.65;;
48534;SDS011;34323;52.022;5.686;2023-06-22T04:24:26;11.63;;;6.82;;
48534;SDS011;34323;52.022;5.686;2023-06-22T04:26:52;10.73;;;6.32;;
48534;SDS011;34323;52.022;5.686;2023-06-22T04:29:19;9.32;;;5.97;;
48534;SDS011;34323;52.022;5.686;2023-06-22T04:31:46;11.60;;;5.57;;
48534;SDS011;34323;52.022;5.686;2023-06-22T04:34:15;9.77;;;6.78;;
48534;SDS011;34323;52.022;5.686;2023-06-22T04:36:41;11.48;;;6.80;;
48534;SDS011;34323;52.022;5.686;2023-06-22T04:39:08;8.13;;;6.43;;
48534;SDS011;34323;52.022;5.686;2023-06-22T04:41:39;11.57;;;7.40;;
48534;SDS011;34323;52.022;5.686;2023-06-22T04:44:11;10.75;;;7.13;;
48534;SDS011;34323;52.022;5.686;2023-06-22T04:46:49;13.02;;;8.10;;
48534;SDS011;34323;52.022;5.686;2023-06-22T04:49:20;13.98;;;8.77;;
48534;SDS011;34323;52.022;5.686;2023-06-22T04:51:47;12.00;;;8.90;;
48534;SDS011;34323;52.022;5.686;2023-06-22T04:54:14;13.13;;;8.52;;
48534;SDS011;34323;52.022;5.686;2023-06-22T04:56:39;13.18;;;8.48;;
48534;SDS011;34323;52.022;5.686;2023-06-22T04:59:06;16.65;;;9.23;;
48534;SDS011;34323;52.022;5.686;2023-06-22T05:01:32;14.10;;;9.20;;
48534;SDS011;34323;52.022;5.686;2023-06-22T05:03:59;17.80;;;10.63;;
48534;SDS011;34323;52.022;5.686;2023-06-22T05:06:26;15.05;;;10.55;;
48534;SDS011;34323;52.022;5.686;2023-06-22T05:08:55;15.18;;;11.32;;
48534;SDS011;34323;52.022;5.686;2023-06-22T05:11:25;20.80;;;13.50;;
48534;SDS011;34323;52.022;5.686;2023-06-22T05:13:54;25.38;;;13.60;;
48534;SDS011;34323;52.022;5.686;2023-06-22T05:16:20;20.95;;;13.35;;
48534;SDS011;34323;52.022;5.686;2023-06-22T05:18:52;21.70;;;13.43;;
48534;SDS011;34323;52.022;5.686;2023-06-22T05:21:26;21.83;;;14.65;;
48534;SDS011;34323;52.022;5.686;2023-06-22T05:23:52;21.80;;;15.07;;
48534;SDS011;34323;52.022;5.686;2023-06-22T05:26:19;22.15;;;14.68;;
48534;SDS011;34323;52.022;5.686;2023-06-22T05:28:46;25.48;;;16.73;;
48534;SDS011;34323;52.022;5.686;2023-06-22T05:31:13;24.63;;;14.77;;
48534;SDS011;34323;52.022;5.686;2023-06-22T05:33:39;26.10;;;16.55;;
48534;SDS011;34323;52.022;5.686;2023-06-22T05:36:05;22.90;;;16.17;;
48534;SDS011;34323;52.022;5.686;2023-06-22T05:38:31;28.20;;;16.90;;
48534;SDS011;34323;52.022;5.686;2023-06-22T05:40:57;29.15;;;18.42;;
48534;SDS011;34323;52.022;5.686;2023-06-22T05:43:22;27.67;;;16.88;;
48534;SDS011;34323;52.022;5.686;2023-06-22T05:45:48;25.95;;;16.33;;
48534;SDS011;34323;52.022;5.686;2023-06-22T05:48:13;22.48;;;16.05;;
48534;SDS011;34323;52.022;5.686;2023-06-22T05:50:39;24.25;;;15.55;;
48534;SDS011;34323;52.022;5.686;2023-06-22T05:53:04;26.05;;;17.35;;
48534;SDS011;34323;52.022;5.686;2023-06-22T05:55:31;28.90;;;18.25;;
48534;SDS011;34323;52.022;5.686;2023-06-22T05:57:57;25.25;;;17.10;;
48534;SDS011;34323;52.022;5.686;2023-06-22T06:00:23;31.85;;;18.33;;
48534;SDS011;34323;52.022;5.686;2023-06-22T06:02:49;32.83;;;18.63;;
48534;SDS011;34323;52.022;5.686;2023-06-22T06:05:14;29.65;;;19.45;;
48534;SDS011;34323;52.022;5.686;2023-06-22T06:07:41;28.20;;;18.55;;
48534;SDS011;34323;52.022;5.686;2023-06-22T06:10:07;27.20;;;18.02;;
48534;SDS011;34323;52.022;5.686;2023-06-22T06:12:33;26.60;;;17.85;;
48534;SDS011;34323;52.022;5.686;2023-06-22T06:14:59;25.80;;;17.60;;
48534;SDS011;34323;52.022;5.686;2023-06-22T06:17:24;24.33;;;17.17;;
48534;SDS011;34323;52.022;5.686;2023-06-22T06:19:50;24.42;;;15.20;;
48534;SDS011;34323;52.022;5.686;2023-06-22T06:22:15;24.02;;;16.85;;
48534;SDS011;34323;52.022;5.686;2023-06-22T06:24:41;24.48;;;16.90;;
48534;SDS011;34323;52.022;5.686;2023-06-22T06:27:06;24.23;;;14.68;;
48534;SDS011;34323;52.022;5.686;2023-06-22T06:29:33;21.65;;;14.88;;
48534;SDS011;34323;52.022;5.686;2023-06-22T06:31:58;20.75;;;14.48;;
48534;SDS011;34323;52.022;5.686;2023-06-22T06:34:24;30.63;;;17.58;;
48534;SDS011;34323;52.022;5.686;2023-06-22T06:36:50;22.15;;;15.50;;
48534;SDS011;34323;52.022;5.686;2023-06-22T06:39:15;18.33;;;12.80;;
48534;SDS011;34323;52.022;5.686;2023-06-22T06:41:41;20.27;;;14.02;;
48534;SDS011;34323;52.022;5.686;2023-06-22T06:44:07;18.98;;;11.40;;
48534;SDS011;34323;52.022;5.686;2023-06-22T06:46:32;18.17;;;11.60;;
48534;SDS011;34323;52.022;5.686;2023-06-22T06:48:58;17.00;;;10.82;;
48534;SDS011;34323;52.022;5.686;2023-06-22T06:51:24;15.02;;;9.95;;
48534;SDS011;34323;52.022;5.686;2023-06-22T06:53:49;19.30;;;10.18;;
48534;SDS011;34323;52.022;5.686;2023-06-22T06:56:15;15.65;;;9.55;;
48534;SDS011;34323;52.022;5.686;2023-06-22T06:58:41;17.17;;;10.77;;
48534;SDS011;34323;52.022;5.686;2023-06-22T07:01:10;13.40;;;7.30;;
48534;SDS011;34323;52.022;5.686;2023-06-22T07:03:36;10.40;;;7.70;;
48534;SDS011;34323;52.022;5.686;2023-06-22T07:06:03;12.90;;;7.60;;
48534;SDS011;34323;52.022;5.686;2023-06-22T07:08:29;11.75;;;7.03;;
48534;SDS011;34323;52.022;5.686;2023-06-22T07:10:54;10.90;;;5.70;;
48534;SDS011;34323;52.022;5.686;2023-06-22T07:13:20;9.23;;;6.35;;
48534;SDS011;34323;52.022;5.686;2023-06-22T07:15:46;11.68;;;7.78;;
48534;SDS011;34323;52.022;5.686;2023-06-22T07:18:12;9.00;;;6.28;;
48534;SDS011;34323;52.022;5.686;2023-06-22T07:20:37;9.90;;;5.35;;
48534;SDS011;34323;52.022;5.686;2023-06-22T07:23:04;9.50;;;5.15;;
48534;SDS011;34323;52.022;5.686;2023-06-22T07:25:30;12.35;;;6.55;;
48534;SDS011;34323;52.022;5.686;2023-06-22T07:28:03;11.25;;;6.18;;
48534;SDS011;34323;52.022;5.686;2023-06-22T07:30:30;7.97;;;5.05;;
48534;SDS011;34323;52.022;5.686;2023-06-22T07:32:57;9.23;;;5.22;;
48534;SDS011;34323;52.022;5.686;2023-06-22T07:35:23;7.75;;;4.93;;
48534;SDS011;34323;52.022;5.686;2023-06-22T07:37:49;8.07;;;4.60;;
48534;SDS011;34323;52.022;5.686;2023-06-22T07:40:15;9.30;;;4.50;;
48534;SDS011;34323;52.022;5.686;2023-06-22T07:42:40;9.32;;;5.32;;
48534;SDS011;34323;52.022;5.686;2023-06-22T07:45:06;7.40;;;3.95;;
48534;SDS011;34323;52.022;5.686;2023-06-22T07:47:33;6.97;;;5.00;;
48534;SDS011;34323;52.022;5.686;2023-06-22T07:50:00;7.85;;;5.40;;
48534;SDS011;34323;52.022;5.686;2023-06-22T07:52:30;8.73;;;5.80;;
48534;SDS011;34323;52.022;5.686;2023-06-22T07:54:56;7.40;;;4.72;;
48534;SDS011;34323;52.022;5.686;2023-06-22T07:57:21;5.22;;;3.97;;
48534;SDS011;34323;52.022;5.686;2023-06-22T07:59:47;8.23;;;3.63;;
48534;SDS011;34323;52.022;5.686;2023-06-22T08:02:13;7.55;;;5.07;;
48534;SDS011;34323;52.022;5.686;2023-06-22T08:04:38;6.35;;;4.07;;
48534;SDS011;34323;52.022;5.686;2023-06-22T08:07:04;6.90;;;4.63;;
48534;SDS011;34323;52.022;5.686;2023-06-22T08:09:31;5.43;;;3.92;;
48534;SDS011;34323;52.022;5.686;2023-06-22T08:11:57;7.38;;;5.13;;
48534;SDS011;34323;52.022;5.686;2023-06-22T08:14:25;6.38;;;4.25;;
48534;SDS011;34323;52.022;5.686;2023-06-22T08:16:51;5.70;;;4.05;;
48534;SDS011;34323;52.022;5.686;2023-06-22T08:19:17;5.60;;;3.92;;
48534;SDS011;34323;52.022;5.686;2023-06-22T08:21:42;8.43;;;4.32;;
48534;SDS011;34323;52.022;5.686;2023-06-22T08:24:08;7.68;;;4.47;;
48534;SDS011;34323;52.022;5.686;2023-06-22T08:26:34;6.90;;;4.80;;
48534;SDS011;34323;52.022;5.686;2023-06-22T08:29:04;7.65;;;4.75;;
48534;SDS011;34323;52.022;5.686;2023-06-22T08:31:31;6.20;;;4.13;;
48534;SDS011;34323;52.022;5.686;2023-06-22T08:33:58;6.45;;;4.78;;
48534;SDS011;34323;52.022;5.686;2023-06-22T08:36:24;7.35;;;4.32;;
48534;SDS011;34323;52.022;5.686;2023-06-22T08:38:50;8.07;;;4.65;;
48534;SDS011;34323;52.022;5.686;2023-06-22T08:41:16;7.68;;;4.85;;
48534;SDS011;34323;52.022;5.686;2023-06-22T08:43:42;7.57;;;5.78;;
48534;SDS011;34323;52.022;5.686;2023-06-22T08:46:09;10.18;;;5.60;;
48534;SDS011;34323;52.022;5.686;2023-06-22T08:48:35;6.78;;;4.55;;
48534;SDS011;34323;52.022;5.686;2023-06-22T08:51:01;7.78;;;4.78;;
48534;SDS011;34323;52.022;5.686;2023-06-22T08:53:27;7.05;;;4.38;;
48534;SDS011;34323;52.022;5.686;2023-06-22T08:55:53;7.63;;;3.83;;
48534;SDS011;34323;52.022;5.686;2023-06-22T08:58:18;7.22;;;4.53;;
48534;SDS011;34323;52.022;5.686;2023-06-22T09:00:46;5.95;;;3.83;;
48534;SDS011;34323;52.022;5.686;2023-06-22T09:03:12;6.07;;;4.07;;
48534;SDS011;34323;52.022;5.686;2023-06-22T09:05:37;9.88;;;4.10;;
48534;SDS011;34323;52.022;5.686;2023-06-22T09:08:03;5.07;;;3.67;;
48534;SDS011;34323;52.022;5.686;2023-06-22T09:10:29;7.45;;;3.50;;
48534;SDS011;34323;52.022;5.686;2023-06-22T09:12:54;5.43;;;3.45;;
48534;SDS011;34323;52.022;5.686;2023-06-22T09:15:20;8.52;;;3.53;;
48534;SDS011;34323;52.022;5.686;2023-06-22T09:17:45;5.93;;;3.25;;
48534;SDS011;34323;52.022;5.686;2023-06-22T09:20:11;9.25;;;3.30;;
48534;SDS011;34323;52.022;5.686;2023-06-22T09:22:37;5.90;;;3.15;;
48534;SDS011;34323;52.022;5.686;2023-06-22T09:25:03;5.93;;;2.92;;
48534;SDS011;34323;52.022;5.686;2023-06-22T09:27:29;6.05;;;3.58;;
48534;SDS011;34323;52.022;5.686;2023-06-22T09:29:55;3.85;;;3.00;;
48534;SDS011;34323;52.022;5.686;2023-06-22T09:32:23;8.43;;;3.40;;
48534;SDS011;34323;52.022;5.686;2023-06-22T09:34:49;5.30;;;3.15;;
48534;SDS011;34323;52.022;5.686;2023-06-22T09:37:14;5.80;;;2.95;;
48534;SDS011;34323;52.022;5.686;2023-06-22T09:39:40;7.88;;;3.22;;
48534;SDS011;34323;52.022;5.686;2023-06-22T09:42:06;8.75;;;3.75;;
48534;SDS011;34323;52.022;5.686;2023-06-22T09:44:31;5.30;;;3.05;;
48534;SDS011;34323;52.022;5.686;2023-06-22T09:46:57;3.42;;;2.50;;
48534;SDS011;34323;52.022;5.686;2023-06-22T09:49:23;4.80;;;3.10;;
48534;SDS011;34323;52.022;5.686;2023-06-22T09:51:48;4.43;;;3.13;;
48534;SDS011;34323;52.022;5.686;2023-06-22T09:54:15;4.32;;;2.83;;
48534;SDS011;34323;52.022;5.686;2023-06-22T09:56:41;5.60;;;3.17;;
48534;SDS011;34323;52.022;5.686;2023-06-22T09:59:07;4.57;;;3.08;;
48534;SDS011;34323;52.022;5.686;2023-06-22T10:01:32;7.40;;;3.97;;
48534;SDS011;34323;52.022;5.686;2023-06-22T10:03:58;6.00;;;3.92;;
48534;SDS011;34323;52.022;5.686;2023-06-22T10:06:23;4.50;;;3.50;;
48534;SDS011;34323;52.022;5.686;2023-06-22T10:08:50;6.43;;;3.33;;
48534;SDS011;34323;52.022;5.686;2023-06-22T10:11:16;5.80;;;3.10;;
48534;SDS011;34323;52.022;5.686;2023-06-22T10:13:42;4.35;;;2.78;;
48534;SDS011;34323;52.022;5.686;2023-06-22T10:16:08;3.63;;;2.70;;
48534;SDS011;34323;52.022;5.686;2023-06-22T10:18:33;5.25;;;2.90;;
48534;SDS011;34323;52.022;5.686;2023-06-22T10:20:59;5.65;;;3.20;;
48534;SDS011;34323;52.022;5.686;2023-06-22T10:23:25;7.47;;;3.00;;
48534;SDS011;34323;52.022;5.686;2023-06-22T10:25:50;5.40;;;3.10;;
48534;SDS011;34323;52.022;5.686;2023-06-22T10:28:16;5.93;;;3.50;;
48534;SDS011;34323;52.022;5.686;2023-06-22T10:30:42;7.53;;;3.35;;
48534;SDS011;34323;52.022;5.686;2023-06-22T10:33:08;5.03;;;3.25;;
48534;SDS011;34323;52.022;5.686;2023-06-22T10:35:35;7.32;;;4.28;;
48534;SDS011;34323;52.022;5.686;2023-06-22T10:38:02;7.07;;;3.58;;
48534;SDS011;34323;52.022;5.686;2023-06-22T10:40:28;5.40;;;3.60;;
48534;SDS011;34323;52.022;5.686;2023-06-22T10:42:54;5.80;;;3.30;;
48534;SDS011;34323;52.022;5.686;2023-06-22T10:45:20;6.72;;;3.38;;
48534;SDS011;34323;52.022;5.686;2023-06-22T10:47:46;8.50;;;3.33;;
48534;SDS011;34323;52.022;5.686;2023-06-22T10:50:11;4.80;;;3.28;;
48534;SDS011;34323;52.022;5.686;2023-06-22T10:52:37;6.30;;;3.17;;
48534;SDS011;34323;52.022;5.686;2023-06-22T10:55:03;8.68;;;3.70;;
48534;SDS011;34323;52.022;5.686;2023-06-22T10:57:29;6.03;;;3.50;;
48534;SDS011;34323;52.022;5.686;2023-06-22T10:59:55;5.25;;;3.67;;
48534;SDS011;34323;52.022;5.686;2023-06-22T11:02:20;7.82;;;4.65;;
48534;SDS011;34323;52.022;5.686;2023-06-22T11:04:46;4.43;;;3.20;;
48534;SDS011;34323;52.022;5.686;2023-06-22T11:07:12;5.75;;;3.63;;
48534;SDS011;34323;52.022;5.686;2023-06-22T11:09:38;11.43;;;4.72;;
48534;SDS011;34323;52.022;5.686;2023-06-22T11:12:04;4.78;;;3.55;;
48534;SDS011;34323;52.022;5.686;2023-06-22T11:14:30;7.90;;;4.50;;
48534;SDS011;34323;52.022;5.686;2023-06-22T11:16:56;5.72;;;4.28;;
48534;SDS011;34323;52.022;5.686;2023-06-22T11:19:22;10.35;;;4.13;;
48534;SDS011;34323;52.022;5.686;2023-06-22T11:21:47;6.70;;;4.75;;
48534;SDS011;34323;52.022;5.686;2023-06-22T11:24:13;5.60;;;3.70;;
48534;SDS011;34323;52.022;5.686;2023-06-22T11:26:38;4.72;;;3.85;;
48534;SDS011;34323;52.022;5.686;2023-06-22T11:29:04;5.63;;;3.50;;
48534;SDS011;34323;52.022;5.686;2023-06-22T11:31:30;5.38;;;3.85;;
48534;SDS011;34323;52.022;5.686;2023-06-22T11:33:57;6.60;;;4.13;;
48534;SDS011;34323;52.022;5.686;2023-06-22T11:36:22;5.03;;;3.97;;
48534;SDS011;34323;52.022;5.686;2023-06-22T11:38:48;7.15;;;3.97;;
48534;SDS011;34323;52.022;5.686;2023-06-22T11:41:14;7.07;;;3.88;;
48534;SDS011;34323;52.022;5.686;2023-06-22T11:43:39;9.55;;;4.20;;
48534;SDS011;34323;52.022;5.686;2023-06-22T11:46:05;6.90;;;4.50;;
48534;SDS011;34323;52.022;5.686;2023-06-22T11:48:31;8.70;;;5.22;;
48534;SDS011;34323;52.022;5.686;2023-06-22T11:50:56;7.00;;;4.60;;
48534;SDS011;34323;52.022;5.686;2023-06-22T11:53:23;7.72;;;4.35;;
48534;SDS011;34323;52.022;5.686;2023-06-22T11:55:51;6.85;;;4.60;;
48534;SDS011;34323;52.022;5.686;2023-06-22T11:58:19;5.13;;;4.25;;
48534;SDS011;34323;52.022;5.686;2023-06-22T12:00:44;8.93;;;4.88;;
48534;SDS011;34323;52.022;5.686;2023-06-22T12:03:10;10.60;;;5.03;;
48534;SDS011;34323;52.022;5.686;2023-06-22T12:05:36;7.15;;;5.63;;
48534;SDS011;34323;52.022;5.686;2023-06-22T12:08:02;7.32;;;5.15;;
48534;SDS011;34323;52.022;5.686;2023-06-22T12:10:28;10.00;;;5.55;;
48534;SDS011;34323;52.022;5.686;2023-06-22T12:12:54;7.72;;;5.72;;
48534;SDS011;34323;52.022;5.686;2023-06-22T12:15:19;11.18;;;6.28;;
48534;SDS011;34323;52.022;5.686;2023-06-22T12:17:45;7.18;;;5.72;;
48534;SDS011;34323;52.022;5.686;2023-06-22T12:20:13;8.23;;;5.95;;
48534;SDS011;34323;52.022;5.686;2023-06-22T12:22:38;8.02;;;6.07;;
48534;SDS011;34323;52.022;5.686;2023-06-22T12:25:06;10.00;;;6.72;;
48534;SDS011;34323;52.022;5.686;2023-06-22T12:27:32;8.75;;;7.28;;
48534;SDS011;34323;52.022;5.686;2023-06-22T12:29:57;10.75;;;7.10;;
48534;SDS011;34323;52.022;5.686;2023-06-22T12:32:23;8.32;;;7.20;;
48534;SDS011;34323;52.022;5.686;2023-06-22T12:34:49;12.43;;;8.07;;
48534;SDS011;34323;52.022;5.686;2023-06-22T12:37:14;10.75;;;8.00;;
48534;SDS011;34323;52.022;5.686;2023-06-22T12:39:40;14.25;;;8.80;;
48534;SDS011;34323;52.022;5.686;2023-06-22T12:42:06;11.88;;;8.80;;
48534;SDS011;34323;52.022;5.686;2023-06-22T12:44:33;11.40;;;8.48;;
48534;SDS011;34323;52.022;5.686;2023-06-22T12:46:59;13.02;;;9.23;;
48534;SDS011;34323;52.022;5.686;2023-06-22T12:49:25;12.07;;;9.68;;
48534;SDS011;34323;52.022;5.686;2023-06-22T12:51:50;14.30;;;10.05;;
48534;SDS011;34323;52.022;5.686;2023-06-22T12:54:16;21.98;;;11.63;;
48534;SDS011;34323;52.022;5.686;2023-06-22T12:56:42;17.77;;;11.27;;
48534;SDS011;34323;52.022;5.686;2023-06-22T12:59:09;15.98;;;12.00;;
48534;SDS011;34323;52.022;5.686;2023-06-22T13:01:35;19.13;;;13.00;;
48534;SDS011;34323;52.022;5.686;2023-06-22T13:04:02;16.55;;;11.32;;
48534;SDS011;34323;52.022;5.686;2023-06-22T13:06:28;22.90;;;13.48;;
48534;SDS011;34323;52.022;5.686;2023-06-22T13:08:53;16.30;;;12.45;;
48534;SDS011;34323;52.022;5.686;2023-06-22T13:11:19;17.75;;;13.65;;
48534;SDS011;34323;52.022;5.686;2023-06-22T13:13:45;16.85;;;13.60;;
48534;SDS011;34323;52.022;5.686;2023-06-22T13:16:11;19.80;;;14.10;;
48534;SDS011;34323;52.022;5.686;2023-06-22T13:18:37;18.83;;;13.15;;
48534;SDS011;34323;52.022;5.686;2023-06-22T13:21:03;15.40;;;13.07;;
48534;SDS011;34323;52.022;5.686;2023-06-22T13:23:29;19.88;;;15.55;;
48534;SDS011;34323;52.022;5.686;2023-06-22T13:25:54;23.98;;;16.73;;
48534;SDS011;34323;52.022;5.686;2023-06-22T13:28:20;22.25;;;15.43;;
48534;SDS011;34323;52.022;5.686;2023-06-22T13:30:46;18.98;;;16.05;;
48534;SDS011;34323;52.022;5.686;2023-06-22T13:33:15;21.48;;;16.10;;
48534;SDS011;34323;52.022;5.686;2023-06-22T13:35:41;19.77;;;15.85;;
48534;SDS011;34323;52.022;5.686;2023-06-22T13:38:07;20.33;;;14.35;;
48534;SDS011;34323;52.022;5.686;2023-06-22T13:40:34;19.33;;;15.10;;
48534;SDS011;34323;52.022;5.686;2023-06-22T13:42:59;17.70;;;14.07;;
48534;SDS011;34323;52.022;5.686;2023-06-22T13:45:25;22.23;;;17.08;;
48534;SDS011;34323;52.022;5.686;2023-06-22T13:47:51;25.65;;;15.55;;
48534;SDS011;34323;52.022;5.686;2023-06-22T13:50:17;22.27;;;16.70;;
48534;SDS011;34323;52.022;5.686;2023-06-22T13:52:42;25.05;;;16.13;;
48534;SDS011;34323;52.022;5.686;2023-06-22T13:55:08;23.70;;;17.02;;
48534;SDS011;34323;52.022;5.686;2023-06-22T13:57:34;19.08;;;16.83;;
48534;SDS011;34323;52.022;5.686;2023-06-22T14:00:00;22.55;;;17.48;;
48534;SDS011;34323;52.022;5.686;2023-06-22T14:02:27;21.38;;;17.05;;
48534;SDS011;34323;52.022;5.686;2023-06-22T14:04:53;22.92;;;16.75;;
48534;SDS011;34323;52.022;5.686;2023-06-22T14:07:18;24.67;;;16.10;;
48534;SDS011;34323;52.022;5.686;2023-06-22T14:09:45;23.20;;;17.23;;
48534;SDS011;34323;52.022;5.686;2023-06-22T14:12:11;21.70;;;17.02;;
48534;SDS011;34323;52.022;5.686;2023-06-22T14:14:37;28.40;;;18.15;;
48534;SDS011;34323;52.022;5.686;2023-06-22T14:17:03;21.70;;;17.45;;
48534;SDS011;34323;52.022;5.686;2023-06-22T14:19:30;26.25;;;18.85;;
48534;SDS011;34323;52.022;5.686;2023-06-22T14:21:55;25.40;;;18.92;;
48534;SDS011;34323;52.022;5.686;2023-06-22T14:24:22;26.23;;;19.17;;
48534;SDS011;34323;52.022;5.686;2023-06-22T14:26:48;25.23;;;20.35;;
48534;SDS011;34323;52.022;5.686;2023-06-22T14:29:13;28.10;;;19.48;;
48534;SDS011;34323;52.022;5.686;2023-06-22T14:31:44;23.98;;;19.15;;
48534;SDS011;34323;52.022;5.686;2023-06-22T14:34:10;27.50;;;20.27;;